sensor_id;sensor_type;location;lat;lon;timestamp;temperature;humidity
6486;DHT22;3276;48.490;9.222;2022-12-18T00:01:02;-10.80;23.30
6486;DHT22;3276;48.490;9.222;2022-12-18T00:03:32;-10.80;22.80
6486;DHT22;3276;48.490;9.222;2022-12-18T00:05:58;-10.80;22.40
6486;DHT22;3276;48.490;9.222;2022-12-18T00:08:23;-10.80;22.50
6486;DHT22;3276;48.490;9.222;2022-12-18T00:10:49;-10.90;22.30
6486;DHT22;3276;48.490;9.222;2022-12-18T00:13:14;-10.90;22.70
6486;DHT22;3276;48.490;9.222;2022-12-18T00:15:40;-10.90;22.30
6486;DHT22;3276;48.490;9.222;2022-12-18T00:18:06;-10.90;22.80
6486;DHT22;3276;48.490;9.222;2022-12-18T00:20:36;-11.00;22.20
6486;DHT22;3276;48.490;9.222;2022-12-18T00:23:01;-11.00;22.20
6486;DHT22;3276;48.490;9.222;2022-12-18T00:25:27;-11.00;22.20
6486;DHT22;3276;48.490;9.222;2022-12-18T00:27:53;-11.10;22.30
6486;DHT22;3276;48.490;9.222;2022-12-18T00:30:18;-11.10;22.10
6486;DHT22;3276;48.490;9.222;2022-12-18T00:32:44;-11.10;22.10
6486;DHT22;3276;48.490;9.222;2022-12-18T00:35:09;-11.20;21.60
6486;DHT22;3276;48.490;9.222;2022-12-18T00:37:35;-11.30;22.00
6486;DHT22;3276;48.490;9.222;2022-12-18T00:40:01;-11.20;22.60
6486;DHT22;3276;48.490;9.222;2022-12-18T00:42:26;-11.20;21.60
6486;DHT22;3276;48.490;9.222;2022-12-18T00:45:11;-11.30;22.00
6486;DHT22;3276;48.490;9.222;2022-12-18T00:47:36;-11.20;22.10
6486;DHT22;3276;48.490;9.222;2022-12-18T00:50:02;-11.20;21.10
6486;DHT22;3276;48.490;9.222;2022-12-18T00:52:27;-11.30;21.40
6486;DHT22;3276;48.490;9.222;2022-12-18T00:54:53;-11.30;21.60
6486;DHT22;3276;48.490;9.222;2022-12-18T00:57:18;-11.30;21.60
6486;DHT22;3276;48.490;9.222;2022-12-18T00:59:44;-11.30;21.40
6486;DHT22;3276;48.490;9.222;2022-12-18T01:02:10;-11.30;21.30
6486;DHT22;3276;48.490;9.222;2022-12-18T01:04:35;-11.40;21.30
6486;DHT22;3276;48.490;9.222;2022-12-18T01:07:01;-11.40;20.70
6486;DHT22;3276;48.490;9.222;2022-12-18T01:09:26;-11.40;21.00
6486;DHT22;3276;48.490;9.222;2022-12-18T01:11:52;-11.40;21.50
6486;DHT22;3276;48.490;9.222;2022-12-18T01:14:17;-11.40;21.00
6486;DHT22;3276;48.490;9.222;2022-12-18T01:16:43;-11.50;20.80
6486;DHT22;3276;48.490;9.222;2022-12-18T01:19:09;-11.50;20.80
6486;DHT22;3276;48.490;9.222;2022-12-18T01:21:34;-11.50;21.00
6486;DHT22;3276;48.490;9.222;2022-12-18T01:24:00;-11.60;20.90
6486;DHT22;3276;48.490;9.222;2022-12-18T01:26:26;-11.60;21.10
6486;DHT22;3276;48.490;9.222;2022-12-18T01:28:55;-11.60;20.90
6486;DHT22;3276;48.490;9.222;2022-12-18T01:31:32;-11.70;20.90
6486;DHT22;3276;48.490;9.222;2022-12-18T01:34:00;-11.70;20.20
6486;DHT22;3276;48.490;9.222;2022-12-18T01:36:31;-11.80;20.60
6486;DHT22;3276;48.490;9.222;2022-12-18T01:39:00;-11.70;20.70
6486;DHT22;3276;48.490;9.222;2022-12-18T01:41:28;-11.70;20.20
6486;DHT22;3276;48.490;9.222;2022-12-18T01:45:36;-11.70;20.40
6486;DHT22;3276;48.490;9.222;2022-12-18T01:50:14;-11.80;20.20
6486;DHT22;3276;48.490;9.222;2022-12-18T01:52:43;-11.70;20.40
6486;DHT22;3276;48.490;9.222;2022-12-18T01:55:13;-11.60;20.50
6486;DHT22;3276;48.490;9.222;2022-12-18T01:57:40;-11.70;20.60
6486;DHT22;3276;48.490;9.222;2022-12-18T02:00:20;-11.60;20.80
6486;DHT22;3276;48.490;9.222;2022-12-18T02:02:47;-11.60;21.20
6486;DHT22;3276;48.490;9.222;2022-12-18T02:05:16;-11.60;22.00
6486;DHT22;3276;48.490;9.222;2022-12-18T02:07:52;-11.40;21.50
6486;DHT22;3276;48.490;9.222;2022-12-18T02:10:36;-11.40;21.70
6486;DHT22;3276;48.490;9.222;2022-12-18T02:13:14;-11.30;21.40
6486;DHT22;3276;48.490;9.222;2022-12-18T02:18:21;-11.20;21.20
6486;DHT22;3276;48.490;9.222;2022-12-18T02:21:00;-11.30;21.30
6486;DHT22;3276;48.490;9.222;2022-12-18T02:26:47;-11.20;22.10
6486;DHT22;3276;48.490;9.222;2022-12-18T02:29:24;-11.20;21.60
6486;DHT22;3276;48.490;9.222;2022-12-18T02:31:54;-11.20;22.10
6486;DHT22;3276;48.490;9.222;2022-12-18T02:34:23;-11.10;22.10
6486;DHT22;3276;48.490;9.222;2022-12-18T02:36:51;-11.10;22.10
6486;DHT22;3276;48.490;9.222;2022-12-18T02:39:18;-11.10;21.90
6486;DHT22;3276;48.490;9.222;2022-12-18T02:41:44;-11.10;21.80
6486;DHT22;3276;48.490;9.222;2022-12-18T02:44:12;-11.00;22.00
6486;DHT22;3276;48.490;9.222;2022-12-18T02:46:45;-11.00;21.40
6486;DHT22;3276;48.490;9.222;2022-12-18T02:49:35;-11.10;20.80
6486;DHT22;3276;48.490;9.222;2022-12-18T02:52:15;-11.20;20.80
6486;DHT22;3276;48.490;9.222;2022-12-18T03:00:19;-11.30;21.30
6486;DHT22;3276;48.490;9.222;2022-12-18T03:03:06;-11.30;21.00
6486;DHT22;3276;48.490;9.222;2022-12-18T03:05:43;-11.30;21.30
6486;DHT22;3276;48.490;9.222;2022-12-18T03:08:20;-11.40;21.30
6486;DHT22;3276;48.490;9.222;2022-12-18T03:10:57;-11.30;20.60
6486;DHT22;3276;48.490;9.222;2022-12-18T03:13:31;-11.30;21.30
6486;DHT22;3276;48.490;9.222;2022-12-18T03:15:59;-11.30;21.60
6486;DHT22;3276;48.490;9.222;2022-12-18T03:18:30;-11.20;20.80
6486;DHT22;3276;48.490;9.222;2022-12-18T03:21:00;-11.20;20.50
6486;DHT22;3276;48.490;9.222;2022-12-18T03:23:32;-11.30;20.90
6486;DHT22;3276;48.490;9.222;2022-12-18T03:26:02;-11.30;20.50
6486;DHT22;3276;48.490;9.222;2022-12-18T03:28:30;-11.20;21.20
6486;DHT22;3276;48.490;9.222;2022-12-18T03:30:58;-11.30;20.40
6486;DHT22;3276;48.490;9.222;2022-12-18T03:33:55;-11.30;20.60
6486;DHT22;3276;48.490;9.222;2022-12-18T03:36:21;-11.20;21.30
6486;DHT22;3276;48.490;9.222;2022-12-18T03:38:48;-11.20;20.80
6486;DHT22;3276;48.490;9.222;2022-12-18T03:41:25;-11.20;20.40
6486;DHT22;3276;48.490;9.222;2022-12-18T03:46:30;-11.20;20.80
6486;DHT22;3276;48.490;9.222;2022-12-18T03:49:01;-11.20;21.20
6486;DHT22;3276;48.490;9.222;2022-12-18T03:51:42;-11.20;21.50
6486;DHT22;3276;48.490;9.222;2022-12-18T03:54:11;-11.30;21.50
6486;DHT22;3276;48.490;9.222;2022-12-18T03:56:48;-11.20;22.30
6486;DHT22;3276;48.490;9.222;2022-12-18T03:59:17;-11.20;21.90
6486;DHT22;3276;48.490;9.222;2022-12-18T04:01:48;-11.30;21.30
6486;DHT22;3276;48.490;9.222;2022-12-18T04:04:16;-11.30;22.00
6486;DHT22;3276;48.490;9.222;2022-12-18T04:06:43;-11.30;22.00
6486;DHT22;3276;48.490;9.222;2022-12-18T04:09:10;-11.30;21.80
6486;DHT22;3276;48.490;9.222;2022-12-18T04:11:36;-11.30;22.00
6486;DHT22;3276;48.490;9.222;2022-12-18T04:14:01;-11.30;22.00
6486;DHT22;3276;48.490;9.222;2022-12-18T04:16:27;-11.30;22.20
6486;DHT22;3276;48.490;9.222;2022-12-18T04:18:53;-11.20;22.50
6486;DHT22;3276;48.490;9.222;2022-12-18T04:21:19;-11.20;22.50
6486;DHT22;3276;48.490;9.222;2022-12-18T04:23:45;-11.20;22.60
6486;DHT22;3276;48.490;9.222;2022-12-18T04:26:11;-11.10;22.90
6486;DHT22;3276;48.490;9.222;2022-12-18T04:28:36;-11.20;22.00
6486;DHT22;3276;48.490;9.222;2022-12-18T04:31:02;-11.30;22.50
6486;DHT22;3276;48.490;9.222;2022-12-18T04:33:28;-11.30;23.20
6486;DHT22;3276;48.490;9.222;2022-12-18T04:35:53;-11.20;23.20
6486;DHT22;3276;48.490;9.222;2022-12-18T04:38:19;-11.10;23.30
6486;DHT22;3276;48.490;9.222;2022-12-18T04:40:44;-11.10;22.10
6486;DHT22;3276;48.490;9.222;2022-12-18T04:43:10;-11.10;22.80
6486;DHT22;3276;48.490;9.222;2022-12-18T04:45:35;-11.20;22.40
6486;DHT22;3276;48.490;9.222;2022-12-18T04:48:02;-11.20;22.10
6486;DHT22;3276;48.490;9.222;2022-12-18T04:50:28;-11.20;22.50
6486;DHT22;3276;48.490;9.222;2022-12-18T04:52:54;-11.10;23.00
6486;DHT22;3276;48.490;9.222;2022-12-18T04:55:20;-11.00;22.90
6486;DHT22;3276;48.490;9.222;2022-12-18T04:57:46;-11.10;22.60
6486;DHT22;3276;48.490;9.222;2022-12-18T05:00:12;-11.00;22.20
6486;DHT22;3276;48.490;9.222;2022-12-18T05:02:38;-10.90;22.30
6486;DHT22;3276;48.490;9.222;2022-12-18T05:05:04;-10.90;21.70
6486;DHT22;3276;48.490;9.222;2022-12-18T05:07:29;-11.00;21.50
6486;DHT22;3276;48.490;9.222;2022-12-18T05:09:55;-10.90;22.30
6486;DHT22;3276;48.490;9.222;2022-12-18T05:12:21;-10.90;22.30
6486;DHT22;3276;48.490;9.222;2022-12-18T05:14:46;-10.90;22.30
6486;DHT22;3276;48.490;9.222;2022-12-18T05:17:12;-10.90;21.60
6486;DHT22;3276;48.490;9.222;2022-12-18T05:19:37;-11.10;21.10
6486;DHT22;3276;48.490;9.222;2022-12-18T05:22:03;-11.10;22.10
6486;DHT22;3276;48.490;9.222;2022-12-18T05:24:28;-11.20;22.10
6486;DHT22;3276;48.490;9.222;2022-12-18T05:26:54;-11.30;22.00
6486;DHT22;3276;48.490;9.222;2022-12-18T05:29:19;-11.30;22.40
6486;DHT22;3276;48.490;9.222;2022-12-18T05:31:45;-11.30;22.80
6486;DHT22;3276;48.490;9.222;2022-12-18T05:34:10;-11.20;22.10
6486;DHT22;3276;48.490;9.222;2022-12-18T05:36:36;-11.30;22.00
6486;DHT22;3276;48.490;9.222;2022-12-18T05:39:02;-11.30;22.10
6486;DHT22;3276;48.490;9.222;2022-12-18T05:41:27;-11.30;22.20
6486;DHT22;3276;48.490;9.222;2022-12-18T05:43:54;-11.40;21.70
6486;DHT22;3276;48.490;9.222;2022-12-18T05:46:19;-11.40;22.10
6486;DHT22;3276;48.490;9.222;2022-12-18T05:48:45;-11.40;21.90
6486;DHT22;3276;48.490;9.222;2022-12-18T05:51:13;-11.50;22.20
6486;DHT22;3276;48.490;9.222;2022-12-18T05:53:40;-11.50;22.10
6486;DHT22;3276;48.490;9.222;2022-12-18T05:56:10;-11.50;21.90
6486;DHT22;3276;48.490;9.222;2022-12-18T05:58:35;-11.60;21.50
6486;DHT22;3276;48.490;9.222;2022-12-18T06:01:16;-11.60;21.60
6486;DHT22;3276;48.490;9.222;2022-12-18T06:03:42;-11.60;22.40
6486;DHT22;3276;48.490;9.222;2022-12-18T06:08:44;-11.70;22.40
6486;DHT22;3276;48.490;9.222;2022-12-18T06:11:10;-11.50;22.50
6486;DHT22;3276;48.490;9.222;2022-12-18T06:13:37;-11.60;22.10
6486;DHT22;3276;48.490;9.222;2022-12-18T06:16:06;-11.70;21.80
6486;DHT22;3276;48.490;9.222;2022-12-18T06:18:33;-11.80;21.40
6486;DHT22;3276;48.490;9.222;2022-12-18T06:20:59;-11.60;22.30
6486;DHT22;3276;48.490;9.222;2022-12-18T06:23:25;-11.60;22.40
6486;DHT22;3276;48.490;9.222;2022-12-18T06:25:51;-11.60;22.00
6486;DHT22;3276;48.490;9.222;2022-12-18T06:28:17;-11.70;21.80
6486;DHT22;3276;48.490;9.222;2022-12-18T06:30:47;-11.80;22.00
6486;DHT22;3276;48.490;9.222;2022-12-18T06:33:13;-11.80;22.40
6486;DHT22;3276;48.490;9.222;2022-12-18T06:35:38;-11.70;22.50
6486;DHT22;3276;48.490;9.222;2022-12-18T06:38:04;-11.60;23.10
6486;DHT22;3276;48.490;9.222;2022-12-18T06:40:30;-11.60;21.80
6486;DHT22;3276;48.490;9.222;2022-12-18T06:42:55;-11.70;21.80
6486;DHT22;3276;48.490;9.222;2022-12-18T06:45:21;-11.70;21.80
6486;DHT22;3276;48.490;9.222;2022-12-18T06:47:46;-11.60;21.60
6486;DHT22;3276;48.490;9.222;2022-12-18T06:50:12;-11.60;21.30
6486;DHT22;3276;48.490;9.222;2022-12-18T06:52:39;-11.60;21.20
6486;DHT22;3276;48.490;9.222;2022-12-18T06:55:06;-11.60;20.50
6486;DHT22;3276;48.490;9.222;2022-12-18T06:57:33;-11.60;21.30
6486;DHT22;3276;48.490;9.222;2022-12-18T06:59:59;-11.60;20.80
6486;DHT22;3276;48.490;9.222;2022-12-18T07:02:25;-11.60;21.60
6486;DHT22;3276;48.490;9.222;2022-12-18T07:04:50;-11.60;20.90
6486;DHT22;3276;48.490;9.222;2022-12-18T07:07:16;-11.60;21.10
6486;DHT22;3276;48.490;9.222;2022-12-18T07:09:41;-11.60;21.80
6486;DHT22;3276;48.490;9.222;2022-12-18T07:12:07;-11.60;21.20
6486;DHT22;3276;48.490;9.222;2022-12-18T07:14:33;-11.60;21.10
6486;DHT22;3276;48.490;9.222;2022-12-18T07:16:58;-11.60;20.90
6486;DHT22;3276;48.490;9.222;2022-12-18T07:19:24;-11.60;20.50
6486;DHT22;3276;48.490;9.222;2022-12-18T07:21:50;-11.60;20.10
6486;DHT22;3276;48.490;9.222;2022-12-18T07:24:16;-11.60;20.60
6486;DHT22;3276;48.490;9.222;2022-12-18T07:26:41;-11.50;21.50
6486;DHT22;3276;48.490;9.222;2022-12-18T07:29:07;-11.50;21.00
6486;DHT22;3276;48.490;9.222;2022-12-18T07:31:33;-11.50;21.10
6486;DHT22;3276;48.490;9.222;2022-12-18T07:33:59;-11.40;20.70
6486;DHT22;3276;48.490;9.222;2022-12-18T07:36:24;-11.40;20.90
6486;DHT22;3276;48.490;9.222;2022-12-18T07:38:50;-11.40;21.10
6486;DHT22;3276;48.490;9.222;2022-12-18T07:41:17;-11.40;20.70
6486;DHT22;3276;48.490;9.222;2022-12-18T07:43:44;-11.40;20.50
6486;DHT22;3276;48.490;9.222;2022-12-18T07:46:10;-11.40;20.60
6486;DHT22;3276;48.490;9.222;2022-12-18T07:48:36;-11.40;21.20
6486;DHT22;3276;48.490;9.222;2022-12-18T07:51:05;-11.30;21.20
6486;DHT22;3276;48.490;9.222;2022-12-18T07:53:32;-11.30;20.50
6486;DHT22;3276;48.490;9.222;2022-12-18T07:55:59;-11.30;21.50
6486;DHT22;3276;48.490;9.222;2022-12-18T07:58:25;-11.30;21.00
6486;DHT22;3276;48.490;9.222;2022-12-18T08:00:50;-11.30;21.00
6486;DHT22;3276;48.490;9.222;2022-12-18T08:03:17;-11.20;21.20
6486;DHT22;3276;48.490;9.222;2022-12-18T08:05:43;-11.10;21.70
6486;DHT22;3276;48.490;9.222;2022-12-18T08:08:08;-11.10;21.10
6486;DHT22;3276;48.490;9.222;2022-12-18T08:10:34;-11.00;21.90
6486;DHT22;3276;48.490;9.222;2022-12-18T08:13:00;-10.90;21.70
6486;DHT22;3276;48.490;9.222;2022-12-18T08:15:25;-10.90;21.10
6486;DHT22;3276;48.490;9.222;2022-12-18T08:17:51;-10.90;23.80
6486;DHT22;3276;48.490;9.222;2022-12-18T08:20:16;-10.90;23.00
6486;DHT22;3276;48.490;9.222;2022-12-18T08:22:43;-10.80;22.70
6486;DHT22;3276;48.490;9.222;2022-12-18T08:25:10;-10.80;22.30
6486;DHT22;3276;48.490;9.222;2022-12-18T08:27:35;-10.80;22.20
6486;DHT22;3276;48.490;9.222;2022-12-18T08:30:01;-10.80;22.60
6486;DHT22;3276;48.490;9.222;2022-12-18T08:32:27;-10.70;22.50
6486;DHT22;3276;48.490;9.222;2022-12-18T08:34:53;-10.70;21.90
6486;DHT22;3276;48.490;9.222;2022-12-18T08:37:18;-10.60;22.20
6486;DHT22;3276;48.490;9.222;2022-12-18T08:39:44;-10.50;21.90
6486;DHT22;3276;48.490;9.222;2022-12-18T08:42:10;-10.50;21.80
6486;DHT22;3276;48.490;9.222;2022-12-18T08:44:54;-10.50;21.90
6486;DHT22;3276;48.490;9.222;2022-12-18T08:47:19;-10.50;21.10
6486;DHT22;3276;48.490;9.222;2022-12-18T08:49:45;-10.50;21.30
6486;DHT22;3276;48.490;9.222;2022-12-18T08:52:10;-10.50;21.50
6486;DHT22;3276;48.490;9.222;2022-12-18T08:54:39;-10.40;21.20
6486;DHT22;3276;48.490;9.222;2022-12-18T08:57:04;-10.40;21.20
6486;DHT22;3276;48.490;9.222;2022-12-18T08:59:30;-10.30;21.50
6486;DHT22;3276;48.490;9.222;2022-12-18T09:01:55;-10.20;21.80
6486;DHT22;3276;48.490;9.222;2022-12-18T09:04:22;-10.20;21.20
6486;DHT22;3276;48.490;9.222;2022-12-18T09:06:47;-10.10;22.00
6486;DHT22;3276;48.490;9.222;2022-12-18T09:09:13;-10.00;22.60
6486;DHT22;3276;48.490;9.222;2022-12-18T09:11:39;-9.80;22.60
6486;DHT22;3276;48.490;9.222;2022-12-18T09:14:04;-9.80;22.60
6486;DHT22;3276;48.490;9.222;2022-12-18T09:16:31;-9.70;22.40
6486;DHT22;3276;48.490;9.222;2022-12-18T09:18:57;-9.60;22.90
6486;DHT22;3276;48.490;9.222;2022-12-18T09:21:26;-9.50;22.60
6486;DHT22;3276;48.490;9.222;2022-12-18T09:23:53;-9.40;23.00
6486;DHT22;3276;48.490;9.222;2022-12-18T09:26:19;-9.40;22.90
6486;DHT22;3276;48.490;9.222;2022-12-18T09:28:45;-9.30;22.50
6486;DHT22;3276;48.490;9.222;2022-12-18T09:31:12;-9.20;22.30
6486;DHT22;3276;48.490;9.222;2022-12-18T09:33:38;-9.20;23.10
6486;DHT22;3276;48.490;9.222;2022-12-18T09:36:05;-9.10;23.40
6486;DHT22;3276;48.490;9.222;2022-12-18T09:38:32;-9.00;23.70
6486;DHT22;3276;48.490;9.222;2022-12-18T09:41:03;-8.90;23.40
6486;DHT22;3276;48.490;9.222;2022-12-18T09:43:51;-8.70;23.80
6486;DHT22;3276;48.490;9.222;2022-12-18T09:46:28;-8.50;23.80
6486;DHT22;3276;48.490;9.222;2022-12-18T09:49:00;-8.50;23.70
6486;DHT22;3276;48.490;9.222;2022-12-18T09:51:35;-8.40;23.80
6486;DHT22;3276;48.490;9.222;2022-12-18T09:54:06;-8.20;24.20
6486;DHT22;3276;48.490;9.222;2022-12-18T09:56:36;-8.10;24.70
6486;DHT22;3276;48.490;9.222;2022-12-18T09:59:04;-7.90;24.70
6486;DHT22;3276;48.490;9.222;2022-12-18T10:01:31;-7.80;24.80
6486;DHT22;3276;48.490;9.222;2022-12-18T10:03:57;-7.70;25.10
6486;DHT22;3276;48.490;9.222;2022-12-18T10:06:36;-7.50;26.00
6486;DHT22;3276;48.490;9.222;2022-12-18T10:11:55;-7.30;24.50
6486;DHT22;3276;48.490;9.222;2022-12-18T10:22:39;-6.80;25.60
6486;DHT22;3276;48.490;9.222;2022-12-18T10:25:31;-6.60;25.80
6486;DHT22;3276;48.490;9.222;2022-12-18T10:28:07;-6.40;25.80
6486;DHT22;3276;48.490;9.222;2022-12-18T10:30:33;-6.30;26.00
6486;DHT22;3276;48.490;9.222;2022-12-18T10:33:02;-6.00;27.20
6486;DHT22;3276;48.490;9.222;2022-12-18T10:35:28;-5.70;26.70
6486;DHT22;3276;48.490;9.222;2022-12-18T10:46:03;-4.30;28.50
6486;DHT22;3276;48.490;9.222;2022-12-18T10:48:32;-3.90;29.00
6486;DHT22;3276;48.490;9.222;2022-12-18T10:50:59;-3.60;27.70
6486;DHT22;3276;48.490;9.222;2022-12-18T10:53:28;-3.40;26.30
6486;DHT22;3276;48.490;9.222;2022-12-18T10:55:57;-3.30;26.60
6486;DHT22;3276;48.490;9.222;2022-12-18T10:58:24;-3.40;22.30
6486;DHT22;3276;48.490;9.222;2022-12-18T11:01:16;-3.70;21.60
6486;DHT22;3276;48.490;9.222;2022-12-18T11:03:44;-4.00;21.90
6486;DHT22;3276;48.490;9.222;2022-12-18T11:06:15;-4.10;22.40
6486;DHT22;3276;48.490;9.222;2022-12-18T11:08:43;-4.10;22.60
6486;DHT22;3276;48.490;9.222;2022-12-18T11:11:20;-4.20;22.50
6486;DHT22;3276;48.490;9.222;2022-12-18T11:16:28;-4.30;22.40
6486;DHT22;3276;48.490;9.222;2022-12-18T11:19:13;-4.30;23.60
6486;DHT22;3276;48.490;9.222;2022-12-18T11:21:41;-4.30;24.00
6486;DHT22;3276;48.490;9.222;2022-12-18T11:24:32;-4.20;24.40
6486;DHT22;3276;48.490;9.222;2022-12-18T11:27:01;-4.20;24.60
6486;DHT22;3276;48.490;9.222;2022-12-18T11:29:38;-4.00;24.70
6486;DHT22;3276;48.490;9.222;2022-12-18T11:34:52;-3.60;25.10
6486;DHT22;3276;48.490;9.222;2022-12-18T11:37:20;-3.40;24.60
6486;DHT22;3276;48.490;9.222;2022-12-18T11:39:54;-3.40;22.40
6486;DHT22;3276;48.490;9.222;2022-12-18T11:42:38;-3.50;23.00
6486;DHT22;3276;48.490;9.222;2022-12-18T11:48:01;-3.50;23.00
6486;DHT22;3276;48.490;9.222;2022-12-18T11:53:02;-3.40;24.10
6486;DHT22;3276;48.490;9.222;2022-12-18T11:55:39;-3.10;23.80
6486;DHT22;3276;48.490;9.222;2022-12-18T12:09:23;-2.70;21.10
6486;DHT22;3276;48.490;9.222;2022-12-18T12:17:37;-2.30;19.90
6486;DHT22;3276;48.490;9.222;2022-12-18T12:20:32;-2.20;19.40
6486;DHT22;3276;48.490;9.222;2022-12-18T12:23:26;-2.20;19.20
6486;DHT22;3276;48.490;9.222;2022-12-18T12:26:08;-2.20;18.90
6486;DHT22;3276;48.490;9.222;2022-12-18T12:39:02;-2.20;18.20
6486;DHT22;3276;48.490;9.222;2022-12-18T12:41:37;-2.20;18.60
6486;DHT22;3276;48.490;9.222;2022-12-18T12:44:32;-2.10;18.80
6486;DHT22;3276;48.490;9.222;2022-12-18T12:47:11;-2.10;18.50
6486;DHT22;3276;48.490;9.222;2022-12-18T12:49:38;-2.10;17.60
6486;DHT22;3276;48.490;9.222;2022-12-18T12:52:18;-2.20;17.50
6486;DHT22;3276;48.490;9.222;2022-12-18T12:54:48;-2.30;17.70
6486;DHT22;3276;48.490;9.222;2022-12-18T12:57:21;-2.50;18.60
6486;DHT22;3276;48.490;9.222;2022-12-18T13:02:42;-2.60;19.40
6486;DHT22;3276;48.490;9.222;2022-12-18T13:05:19;-2.60;19.00
6486;DHT22;3276;48.490;9.222;2022-12-18T13:08:05;-2.60;18.90
6486;DHT22;3276;48.490;9.222;2022-12-18T13:10:40;-2.70;19.10
6486;DHT22;3276;48.490;9.222;2022-12-18T13:15:45;-2.70;19.40
6486;DHT22;3276;48.490;9.222;2022-12-18T13:18:22;-2.70;19.30
6486;DHT22;3276;48.490;9.222;2022-12-18T13:21:18;-2.70;18.60
6486;DHT22;3276;48.490;9.222;2022-12-18T13:23:46;-2.70;18.10
6486;DHT22;3276;48.490;9.222;2022-12-18T13:31:57;-3.00;18.30
6486;DHT22;3276;48.490;9.222;2022-12-18T13:34:29;-2.80;18.10
6486;DHT22;3276;48.490;9.222;2022-12-18T13:37:38;-2.60;17.90
6486;DHT22;3276;48.490;9.222;2022-12-18T13:39:43;-2.60;16.70
6486;DHT22;3276;48.490;9.222;2022-12-18T13:44:39;-2.60;17.20
6486;DHT22;3276;48.490;9.222;2022-12-18T13:47:34;-2.50;16.60
6486;DHT22;3276;48.490;9.222;2022-12-18T13:50:08;-2.60;16.90
6486;DHT22;3276;48.490;9.222;2022-12-18T13:52:37;-2.70;17.20
6486;DHT22;3276;48.490;9.222;2022-12-18T13:55:07;-2.60;17.50
6486;DHT22;3276;48.490;9.222;2022-12-18T13:57:35;-2.60;17.10
6486;DHT22;3276;48.490;9.222;2022-12-18T14:02:46;-2.40;17.00
6486;DHT22;3276;48.490;9.222;2022-12-18T14:07:52;-2.20;16.70
6486;DHT22;3276;48.490;9.222;2022-12-18T14:10:18;-2.20;16.70
6486;DHT22;3276;48.490;9.222;2022-12-18T14:12:48;-2.20;16.70
6486;DHT22;3276;48.490;9.222;2022-12-18T14:18:00;-2.40;17.20
6486;DHT22;3276;48.490;9.222;2022-12-18T14:20:32;-2.30;17.50
6486;DHT22;3276;48.490;9.222;2022-12-18T14:22:58;-2.30;16.50
6486;DHT22;3276;48.490;9.222;2022-12-18T14:25:29;-2.30;17.40
6486;DHT22;3276;48.490;9.222;2022-12-18T14:35:28;-2.40;16.70
6486;DHT22;3276;48.490;9.222;2022-12-18T14:38:18;-2.50;16.70
6486;DHT22;3276;48.490;9.222;2022-12-18T14:40:44;-2.50;16.70
6486;DHT22;3276;48.490;9.222;2022-12-18T14:43:13;-2.50;16.90
6486;DHT22;3276;48.490;9.222;2022-12-18T14:45:44;-2.50;17.00
6486;DHT22;3276;48.490;9.222;2022-12-18T14:48:19;-2.50;17.10
6486;DHT22;3276;48.490;9.222;2022-12-18T14:50:55;-2.60;17.10
6486;DHT22;3276;48.490;9.222;2022-12-18T14:55:56;-2.70;17.00
6486;DHT22;3276;48.490;9.222;2022-12-18T14:58:22;-2.80;17.20
6486;DHT22;3276;48.490;9.222;2022-12-18T15:00:47;-2.90;17.20
6486;DHT22;3276;48.490;9.222;2022-12-18T15:03:18;-2.90;17.40
6486;DHT22;3276;48.490;9.222;2022-12-18T15:05:45;-3.00;17.40
6486;DHT22;3276;48.490;9.222;2022-12-18T15:08:34;-3.00;17.60
6486;DHT22;3276;48.490;9.222;2022-12-18T15:11:01;-3.10;17.40
6486;DHT22;3276;48.490;9.222;2022-12-18T15:13:27;-3.20;18.00
6486;DHT22;3276;48.490;9.222;2022-12-18T15:15:55;-3.10;18.00
6486;DHT22;3276;48.490;9.222;2022-12-18T15:18:29;-3.10;18.00
6486;DHT22;3276;48.490;9.222;2022-12-18T15:20:59;-3.10;17.60
6486;DHT22;3276;48.490;9.222;2022-12-18T15:23:46;-3.20;17.80
6486;DHT22;3276;48.490;9.222;2022-12-18T15:26:14;-3.30;17.60
6486;DHT22;3276;48.490;9.222;2022-12-18T15:31:17;-3.30;17.90
6486;DHT22;3276;48.490;9.222;2022-12-18T15:36:19;-3.40;17.90
6486;DHT22;3276;48.490;9.222;2022-12-18T15:38:51;-3.40;18.20
6486;DHT22;3276;48.490;9.222;2022-12-18T15:41:20;-3.50;18.20
6486;DHT22;3276;48.490;9.222;2022-12-18T15:43:50;-3.50;18.90
6486;DHT22;3276;48.490;9.222;2022-12-18T15:51:33;-3.60;19.40
6486;DHT22;3276;48.490;9.222;2022-12-18T15:54:02;-3.70;18.70
6486;DHT22;3276;48.490;9.222;2022-12-18T15:56:31;-3.70;18.80
6486;DHT22;3276;48.490;9.222;2022-12-18T15:59:17;-3.80;19.20
6486;DHT22;3276;48.490;9.222;2022-12-18T16:01:49;-3.80;19.60
6486;DHT22;3276;48.490;9.222;2022-12-18T16:04:17;-3.90;19.70
6486;DHT22;3276;48.490;9.222;2022-12-18T16:06:45;-3.90;19.80
6486;DHT22;3276;48.490;9.222;2022-12-18T16:09:11;-3.90;20.10
6486;DHT22;3276;48.490;9.222;2022-12-18T16:11:38;-3.90;19.90
6486;DHT22;3276;48.490;9.222;2022-12-18T16:14:21;-3.90;20.40
6486;DHT22;3276;48.490;9.222;2022-12-18T16:16:50;-4.00;20.20
6486;DHT22;3276;48.490;9.222;2022-12-18T16:19:16;-4.00;20.30
6486;DHT22;3276;48.490;9.222;2022-12-18T16:21:43;-4.00;20.20
6486;DHT22;3276;48.490;9.222;2022-12-18T16:24:16;-4.00;20.40
6486;DHT22;3276;48.490;9.222;2022-12-18T16:26:42;-4.00;20.70
6486;DHT22;3276;48.490;9.222;2022-12-18T16:29:09;-3.90;20.40
6486;DHT22;3276;48.490;9.222;2022-12-18T16:31:34;-3.90;20.20
6486;DHT22;3276;48.490;9.222;2022-12-18T16:36:35;-3.80;19.70
6486;DHT22;3276;48.490;9.222;2022-12-18T16:39:04;-3.70;19.90
6486;DHT22;3276;48.490;9.222;2022-12-18T16:41:29;-3.70;19.60
6486;DHT22;3276;48.490;9.222;2022-12-18T16:43:59;-3.70;19.50
6486;DHT22;3276;48.490;9.222;2022-12-18T16:46:24;-3.70;19.40
6486;DHT22;3276;48.490;9.222;2022-12-18T16:48:50;-3.70;19.60
6486;DHT22;3276;48.490;9.222;2022-12-18T16:51:16;-3.60;19.60
6486;DHT22;3276;48.490;9.222;2022-12-18T16:53:41;-3.60;19.40
6486;DHT22;3276;48.490;9.222;2022-12-18T16:56:07;-3.60;19.50
6486;DHT22;3276;48.490;9.222;2022-12-18T16:58:32;-3.50;20.10
6486;DHT22;3276;48.490;9.222;2022-12-18T17:00:58;-3.60;19.60
6486;DHT22;3276;48.490;9.222;2022-12-18T17:03:24;-3.50;19.00
6486;DHT22;3276;48.490;9.222;2022-12-18T17:05:49;-3.50;19.40
6486;DHT22;3276;48.490;9.222;2022-12-18T17:08:15;-3.40;18.90
6486;DHT22;3276;48.490;9.222;2022-12-18T17:10:40;-3.40;18.90
6486;DHT22;3276;48.490;9.222;2022-12-18T17:13:06;-3.30;18.90
6486;DHT22;3276;48.490;9.222;2022-12-18T17:15:35;-3.20;18.80
6486;DHT22;3276;48.490;9.222;2022-12-18T17:18:01;-3.10;18.10
6486;DHT22;3276;48.490;9.222;2022-12-18T17:20:29;-3.10;18.40
6486;DHT22;3276;48.490;9.222;2022-12-18T17:22:54;-3.00;18.50
6486;DHT22;3276;48.490;9.222;2022-12-18T17:25:20;-2.90;17.80
6486;DHT22;3276;48.490;9.222;2022-12-18T17:27:45;-2.90;17.50
6486;DHT22;3276;48.490;9.222;2022-12-18T17:30:11;-2.80;17.70
6486;DHT22;3276;48.490;9.222;2022-12-18T17:32:37;-2.80;17.40
6486;DHT22;3276;48.490;9.222;2022-12-18T17:35:03;-2.80;16.80
6486;DHT22;3276;48.490;9.222;2022-12-18T17:37:28;-2.70;16.80
6486;DHT22;3276;48.490;9.222;2022-12-18T17:39:54;-2.70;17.20
6486;DHT22;3276;48.490;9.222;2022-12-18T17:42:19;-2.70;17.50
6486;DHT22;3276;48.490;9.222;2022-12-18T17:44:45;-2.70;17.20
6486;DHT22;3276;48.490;9.222;2022-12-18T17:47:12;-2.70;17.00
6486;DHT22;3276;48.490;9.222;2022-12-18T17:49:38;-2.70;16.80
6486;DHT22;3276;48.490;9.222;2022-12-18T17:52:03;-2.70;17.50
6486;DHT22;3276;48.490;9.222;2022-12-18T17:54:29;-2.60;17.80
6486;DHT22;3276;48.490;9.222;2022-12-18T17:56:55;-2.60;17.30
6486;DHT22;3276;48.490;9.222;2022-12-18T17:59:20;-2.50;16.60
6486;DHT22;3276;48.490;9.222;2022-12-18T18:01:47;-2.50;18.30
6486;DHT22;3276;48.490;9.222;2022-12-18T18:04:13;-2.40;16.90
6486;DHT22;3276;48.490;9.222;2022-12-18T18:06:38;-2.30;16.90